createdAt,value
2023-05-06T00:00:16.239Z,12.08
2023-05-06T00:01:16.211Z,12.07
2023-05-06T00:02:16.219Z,12.08
2023-05-06T00:03:16.288Z,12.04
2023-05-06T00:04:16.265Z,12.04
2023-05-06T00:05:16.178Z,12.04
2023-05-06T00:06:16.179Z,12.03
2023-05-06T00:07:16.176Z,12.04
2023-05-06T00:08:16.189Z,12.04
2023-05-06T00:09:16.213Z,12.04
2023-05-06T00:10:16.129Z,12.04
2023-05-06T00:11:16.126Z,12.05
2023-05-06T00:12:16.114Z,12.07
2023-05-06T00:13:16.245Z,12.07
2023-05-06T00:14:16.077Z,12.07
2023-05-06T00:15:16.071Z,12.07
2023-05-06T00:16:16.071Z,12.10
2023-05-06T00:17:16.037Z,12.10
2023-05-06T00:18:16.032Z,12.10
2023-05-06T00:19:16.051Z,12.08
2023-05-06T00:20:16.015Z,12.07
2023-05-06T00:21:15.991Z,12.08
2023-05-06T00:22:16.018Z,12.08
2023-05-06T00:23:15.980Z,12.07
2023-05-06T00:24:15.970Z,12.05
2023-05-06T00:25:15.953Z,12.03
2023-05-06T00:26:15.975Z,11.96
2023-05-06T00:27:15.932Z,11.95
2023-05-06T00:28:15.952Z,11.91
2023-05-06T00:29:15.933Z,11.89
2023-05-06T00:30:15.926Z,11.93
2023-05-06T00:31:15.905Z,11.93
2023-05-06T00:32:15.919Z,11.93
2023-05-06T00:33:15.926Z,11.93
2023-05-06T00:34:15.859Z,11.91
2023-05-06T00:35:15.858Z,11.91
2023-05-06T00:36:15.858Z,11.85
2023-05-06T00:37:15.856Z,11.76
2023-05-06T00:38:15.817Z,11.71
2023-05-06T00:39:15.807Z,11.67
2023-05-06T00:40:15.788Z,11.67
2023-05-06T00:41:15.786Z,11.66
2023-05-06T00:42:15.770Z,11.64
2023-05-06T00:43:15.793Z,11.62
2023-05-06T00:44:15.755Z,11.62
2023-05-06T00:45:15.752Z,11.62
2023-05-06T00:46:15.766Z,11.62
2023-05-06T00:47:15.733Z,11.61
2023-05-06T00:48:15.774Z,11.59
2023-05-06T00:49:15.691Z,11.59
2023-05-06T00:50:15.697Z,11.61
2023-05-06T00:51:15.670Z,11.61
2023-05-06T00:52:15.710Z,11.59
2023-05-06T00:53:15.677Z,11.55
2023-05-06T00:54:15.648Z,11.52
2023-05-06T00:55:15.641Z,11.49
2023-05-06T00:56:15.616Z,11.49
2023-05-06T00:57:15.625Z,11.51
2023-05-06T00:58:15.606Z,11.49
2023-05-06T00:59:15.600Z,11.51
2023-05-06T01:00:17.137Z,11.51
2023-05-06T01:01:15.650Z,11.51
2023-05-06T01:02:15.615Z,11.51
2023-05-06T01:03:15.668Z,11.49
2023-05-06T01:04:15.539Z,11.48
2023-05-06T01:05:15.605Z,11.49
2023-05-06T01:06:15.528Z,11.49
2023-05-06T01:07:15.496Z,11.54
2023-05-06T01:08:15.497Z,11.55
2023-05-06T01:09:15.518Z,11.58
2023-05-06T01:10:15.485Z,11.61
2023-05-06T01:11:16.080Z,11.64
2023-05-06T01:12:15.471Z,11.67
2023-05-06T01:13:15.593Z,11.64
2023-05-06T01:14:15.468Z,11.59
2023-05-06T01:15:15.420Z,11.56
2023-05-06T01:16:15.402Z,11.54
2023-05-06T01:17:15.450Z,11.54
2023-05-06T01:18:15.391Z,11.54
2023-05-06T01:19:15.364Z,11.56
2023-05-06T01:20:15.431Z,11.58
2023-05-06T01:21:15.354Z,11.56
2023-05-06T01:22:15.351Z,11.55
2023-05-06T01:23:15.328Z,11.52
2023-05-06T01:24:15.313Z,11.51
2023-05-06T01:25:15.342Z,11.46
2023-05-06T01:26:15.295Z,11.48
2023-05-06T01:27:15.285Z,11.46
2023-05-06T01:28:15.287Z,11.45
2023-05-06T01:29:15.271Z,11.45
2023-05-06T01:30:15.258Z,11.43
2023-05-06T01:31:15.349Z,11.45
2023-05-06T01:32:15.278Z,11.43
2023-05-06T01:33:15.214Z,11.41
2023-05-06T01:34:15.209Z,11.40
2023-05-06T01:35:15.197Z,11.40
2023-05-06T01:36:15.200Z,11.41
2023-05-06T01:37:15.174Z,11.45
2023-05-06T01:38:15.212Z,11.45
2023-05-06T01:39:15.149Z,11.45
2023-05-06T01:40:15.183Z,11.41
2023-05-06T01:41:15.124Z,11.41
2023-05-06T01:42:15.199Z,11.43
2023-05-06T01:43:15.112Z,11.41
2023-05-06T01:44:15.113Z,11.43
2023-05-06T01:45:15.083Z,11.45
2023-05-06T01:46:15.081Z,11.46
2023-05-06T01:47:15.074Z,11.48
2023-05-06T01:48:15.079Z,11.49
2023-05-06T01:49:15.044Z,11.49
2023-05-06T01:50:15.039Z,11.49
2023-05-06T01:51:15.024Z,11.49
2023-05-06T01:52:15.037Z,11.48
2023-05-06T01:53:14.997Z,11.46
2023-05-06T01:54:15.029Z,11.45
2023-05-06T01:55:14.984Z,11.43
2023-05-06T01:56:14.972Z,11.41
2023-05-06T01:57:14.959Z,11.40
2023-05-06T01:58:14.952Z,11.38
2023-05-06T01:59:14.979Z,11.38
2023-05-06T02:00:14.957Z,11.38
2023-05-06T02:01:14.929Z,11.38
2023-05-06T02:02:14.920Z,11.37
2023-05-06T02:03:15.058Z,11.36
2023-05-06T02:04:14.890Z,11.34
2023-05-06T02:05:14.857Z,11.34
2023-05-06T02:06:14.861Z,11.36
2023-05-06T02:07:14.838Z,11.37
2023-05-06T02:08:14.872Z,11.37
2023-05-06T02:09:14.848Z,11.37
2023-05-06T02:10:14.830Z,11.37
2023-05-06T02:11:14.801Z,11.38
2023-05-06T02:12:14.799Z,11.38
2023-05-06T02:13:14.959Z,11.36
2023-05-06T02:14:14.923Z,11.34
2023-05-06T02:15:14.769Z,11.34
2023-05-06T02:16:14.787Z,11.36
2023-05-06T02:17:14.739Z,11.33
2023-05-06T02:18:14.789Z,11.30
2023-05-06T02:19:14.724Z,11.25
2023-05-06T02:20:14.732Z,11.25
2023-05-06T02:21:14.695Z,11.25
2023-05-06T02:22:14.691Z,11.28
2023-05-06T02:23:14.698Z,11.28
2023-05-06T02:24:14.670Z,11.30
2023-05-06T02:25:14.730Z,11.31
2023-05-06T02:26:14.647Z,11.31
2023-05-06T02:27:14.657Z,11.34
2023-05-06T02:28:14.630Z,11.34
2023-05-06T02:29:14.603Z,11.31
2023-05-06T02:30:14.634Z,11.27
2023-05-06T02:31:14.650Z,11.22
2023-05-06T02:32:14.588Z,11.18
2023-05-06T02:33:14.567Z,11.15
2023-05-06T02:34:14.578Z,11.08
2023-05-06T02:35:14.602Z,11.05
2023-05-06T02:36:14.568Z,11.08
2023-05-06T02:37:14.519Z,11.08
2023-05-06T02:38:14.506Z,11.05
2023-05-06T02:39:14.502Z,11.05
2023-05-06T02:40:14.491Z,11.09
2023-05-06T02:41:14.504Z,11.08
2023-05-06T02:42:14.527Z,11.09
2023-05-06T02:43:14.454Z,11.08
2023-05-06T02:44:14.430Z,11.03
2023-05-06T02:45:14.441Z,11.00
2023-05-06T02:46:14.470Z,11.00
2023-05-06T02:47:14.472Z,10.97
2023-05-06T02:48:14.436Z,10.95
2023-05-06T02:49:14.423Z,10.91
2023-05-06T02:50:14.380Z,10.90
2023-05-06T02:51:14.368Z,10.86
2023-05-06T02:52:14.412Z,10.83
2023-05-06T02:53:14.341Z,10.79
2023-05-06T02:54:14.402Z,10.76
2023-05-06T02:55:14.324Z,10.72
2023-05-06T02:56:14.318Z,10.68
2023-05-06T02:57:14.292Z,10.67
2023-05-06T02:58:14.381Z,10.64
2023-05-06T02:59:14.275Z,10.65
2023-05-06T03:00:14.302Z,10.65
2023-05-06T03:01:14.301Z,10.67
2023-05-06T03:02:14.285Z,10.70
2023-05-06T03:03:14.256Z,10.73
2023-05-06T03:04:14.365Z,10.78
2023-05-06T03:05:14.220Z,10.79
2023-05-06T03:06:14.197Z,10.78
2023-05-06T03:07:14.230Z,10.78
2023-05-06T03:08:14.174Z,10.78
2023-05-06T03:09:14.165Z,10.79
2023-05-06T03:10:14.249Z,10.78
2023-05-06T03:11:14.146Z,10.75
2023-05-06T03:12:14.165Z,10.70
2023-05-06T03:13:14.190Z,10.68
2023-05-06T03:14:14.165Z,10.70
2023-05-06T03:15:14.102Z,10.75
2023-05-06T03:16:14.113Z,10.80
2023-05-06T03:17:14.111Z,10.86
2023-05-06T03:18:14.074Z,11.03
2023-05-06T03:19:14.063Z,11.13
2023-05-06T03:20:14.048Z,11.20
2023-05-06T03:21:14.060Z,11.20
2023-05-06T03:22:14.046Z,11.22
2023-05-06T03:23:14.026Z,11.22
2023-05-06T03:24:14.002Z,11.20
2023-05-06T03:25:14.007Z,11.23
2023-05-06T03:26:13.987Z,11.27
2023-05-06T03:27:14.014Z,11.28
2023-05-06T03:28:13.976Z,11.30
2023-05-06T03:29:13.965Z,11.30
2023-05-06T03:30:13.929Z,11.25
2023-05-06T03:31:13.967Z,11.20
2023-05-06T03:32:13.920Z,11.18
2023-05-06T03:33:13.969Z,11.09
2023-05-06T03:34:13.900Z,10.98
2023-05-06T03:35:13.892Z,10.93
2023-05-06T03:36:13.909Z,10.90
2023-05-06T03:37:13.866Z,10.91
2023-05-06T03:38:13.852Z,10.94
2023-05-06T03:39:13.908Z,10.95
2023-05-06T03:40:13.872Z,10.98
2023-05-06T03:41:13.823Z,10.97
2023-05-06T03:42:13.805Z,10.94
2023-05-06T03:43:13.807Z,10.91
2023-05-06T03:44:13.811Z,10.90
2023-05-06T03:45:13.803Z,10.90
2023-05-06T03:46:13.798Z,10.91
2023-05-06T03:47:13.754Z,10.87
2023-05-06T03:48:13.868Z,10.87
2023-05-06T03:49:13.731Z,10.85
2023-05-06T03:50:13.772Z,10.80
2023-05-06T03:51:13.776Z,10.78
2023-05-06T03:52:13.694Z,10.73
2023-05-06T03:53:13.693Z,10.73
2023-05-06T03:54:13.679Z,10.76
2023-05-06T03:55:13.672Z,10.78
2023-05-06T03:56:13.652Z,10.80
2023-05-06T03:57:13.707Z,10.82
2023-05-06T03:58:13.642Z,10.83
2023-05-06T03:59:13.651Z,10.86
2023-05-06T04:00:13.627Z,10.86
2023-05-06T04:01:13.608Z,10.85
2023-05-06T04:02:13.672Z,10.83
2023-05-06T04:03:13.702Z,10.83
2023-05-06T04:04:13.744Z,10.85
2023-05-06T04:05:13.569Z,10.83
2023-05-06T04:06:13.552Z,10.85
2023-05-06T04:07:13.546Z,10.83
2023-05-06T04:08:13.557Z,10.83
2023-05-06T04:09:13.508Z,10.83
2023-05-06T04:10:13.500Z,10.85
2023-05-06T04:11:13.520Z,10.86
2023-05-06T04:12:13.553Z,10.87
2023-05-06T04:13:13.531Z,10.90
2023-05-06T04:14:13.627Z,10.93
2023-05-06T04:15:13.481Z,10.94
2023-05-06T04:16:13.498Z,10.95
2023-05-06T04:17:13.426Z,10.97
2023-05-06T04:18:13.419Z,11.00
2023-05-06T04:19:13.577Z,10.97
2023-05-06T04:20:13.399Z,10.94
2023-05-06T04:21:13.406Z,10.93
2023-05-06T04:22:13.606Z,10.94
2023-05-06T04:23:13.360Z,10.94
2023-05-06T04:24:13.402Z,10.94
2023-05-06T04:25:13.398Z,10.90
2023-05-06T04:26:13.338Z,10.90
2023-05-06T04:27:13.595Z,10.86
2023-05-06T04:28:13.303Z,10.91
2023-05-06T04:29:13.293Z,10.94
2023-05-06T04:30:13.284Z,10.98
2023-05-06T04:31:13.343Z,11.04
2023-05-06T04:32:13.276Z,11.09
2023-05-06T04:33:13.308Z,11.12
2023-05-06T04:34:13.241Z,11.13
2023-05-06T04:35:13.787Z,11.12
2023-05-06T04:36:13.220Z,11.12
2023-05-06T04:37:13.247Z,11.09
2023-05-06T04:38:13.206Z,11.05
2023-05-06T04:39:13.192Z,11.05
2023-05-06T04:40:13.185Z,11.05
2023-05-06T04:41:13.176Z,11.05
2023-05-06T04:42:13.176Z,11.04
2023-05-06T04:43:13.149Z,11.05
2023-05-06T04:44:13.147Z,11.05
2023-05-06T04:45:13.128Z,11.08
2023-05-06T04:46:13.210Z,11.09
2023-05-06T04:47:13.156Z,11.12
2023-05-06T04:48:13.087Z,11.16
2023-05-06T04:49:13.091Z,11.18
2023-05-06T04:50:13.565Z,11.23
2023-05-06T04:51:13.071Z,11.28
2023-05-06T04:52:13.042Z,11.31
2023-05-06T04:53:13.038Z,11.33
2023-05-06T04:54:13.032Z,11.37
2023-05-06T04:55:13.127Z,11.37
2023-05-06T04:56:13.002Z,11.37
2023-05-06T04:57:12.997Z,11.40
2023-05-06T04:58:12.988Z,11.41
2023-05-06T04:59:12.974Z,11.41
2023-05-06T05:00:15.039Z,11.45
2023-05-06T05:01:12.975Z,11.46
2023-05-06T05:02:13.098Z,11.48
2023-05-06T05:03:13.093Z,11.52
2023-05-06T05:04:12.965Z,11.54
2023-05-06T05:05:13.061Z,11.54
2023-05-06T05:06:12.904Z,11.56
2023-05-06T05:07:13.806Z,11.56
2023-05-06T05:08:12.876Z,11.55
2023-05-06T05:09:12.918Z,11.58
2023-05-06T05:10:12.851Z,11.58
2023-05-06T05:11:12.862Z,11.58
2023-05-06T05:12:12.832Z,11.61
2023-05-06T05:13:15.256Z,11.64
2023-05-06T05:14:12.829Z,11.66
2023-05-06T05:15:13.005Z,11.66
2023-05-06T05:16:12.814Z,11.66
2023-05-06T05:17:12.850Z,11.62
2023-05-06T05:18:12.781Z,11.64
2023-05-06T05:19:12.786Z,11.67
2023-05-06T05:20:12.771Z,11.69
2023-05-06T05:21:12.774Z,11.70
2023-05-06T05:22:12.721Z,11.71
2023-05-06T05:23:12.710Z,11.74
2023-05-06T05:24:12.697Z,11.74
2023-05-06T05:25:13.020Z,11.79
2023-05-06T05:26:12.715Z,11.79
2023-05-06T05:27:12.751Z,11.77
2023-05-06T05:28:12.654Z,11.74
2023-05-06T05:29:12.668Z,11.76
2023-05-06T05:30:12.675Z,11.77
2023-05-06T05:31:12.662Z,11.79
2023-05-06T05:32:12.612Z,11.82
2023-05-06T05:33:12.660Z,11.82
2023-05-06T05:34:12.695Z,11.84
2023-05-06T05:35:12.731Z,11.87
2023-05-06T05:36:12.593Z,11.89
2023-05-06T05:37:12.575Z,11.89
2023-05-06T05:38:12.549Z,11.91
2023-05-06T05:39:12.546Z,11.93
2023-05-06T05:40:12.528Z,11.95
2023-05-06T05:41:12.581Z,11.96
2023-05-06T05:42:12.497Z,11.97
2023-05-06T05:43:12.499Z,11.97
2023-05-06T05:44:12.485Z,11.99
2023-05-06T05:45:12.471Z,12.00
2023-05-06T05:46:12.468Z,12.03
2023-05-06T05:47:12.521Z,12.05
2023-05-06T05:48:12.492Z,12.07
2023-05-06T05:49:12.425Z,12.11
2023-05-06T05:50:12.419Z,12.13
2023-05-06T05:51:12.434Z,12.14
2023-05-06T05:52:12.412Z,12.15
2023-05-06T05:53:12.435Z,12.18
2023-05-06T05:54:12.387Z,12.22
2023-05-06T05:55:12.370Z,12.26
2023-05-06T05:56:12.362Z,12.28
2023-05-06T05:57:12.352Z,12.36
2023-05-06T05:58:12.339Z,12.40
2023-05-06T05:59:12.373Z,12.44
2023-05-06T06:00:13.549Z,12.47
2023-05-06T06:01:12.357Z,12.48
2023-05-06T06:02:12.280Z,12.50
2023-05-06T06:03:12.433Z,12.51
2023-05-06T06:04:13.874Z,12.55
2023-05-06T06:05:12.338Z,12.59
2023-05-06T06:06:12.239Z,12.61
2023-05-06T06:07:12.239Z,12.65
2023-05-06T06:08:12.259Z,12.68
2023-05-06T06:09:12.207Z,12.68
2023-05-06T06:10:12.200Z,12.72
2023-05-06T06:11:12.186Z,12.73
2023-05-06T06:12:12.301Z,12.79
2023-05-06T06:13:13.483Z,12.83
2023-05-06T06:14:12.145Z,12.86
2023-05-06T06:15:12.327Z,12.87
2023-05-06T06:16:12.168Z,12.91
2023-05-06T06:17:12.129Z,12.91
2023-05-06T06:18:12.116Z,12.95
2023-05-06T06:19:12.108Z,12.96
2023-05-06T06:20:12.097Z,12.98
2023-05-06T06:21:12.132Z,13.01
2023-05-06T06:22:12.070Z,13.02
2023-05-06T06:23:12.068Z,13.02
2023-05-06T06:24:12.039Z,13.04
2023-05-06T06:25:12.268Z,13.04
2023-05-06T06:26:12.549Z,13.06
2023-05-06T06:27:12.007Z,13.09
2023-05-06T06:28:11.989Z,13.11
2023-05-06T06:29:11.995Z,13.14
2023-05-06T06:30:11.986Z,13.16
2023-05-06T06:31:12.022Z,13.20
2023-05-06T06:32:12.019Z,13.23
2023-05-06T06:33:11.953Z,13.27
2023-05-06T06:34:11.938Z,13.30
2023-05-06T06:35:12.092Z,13.35
2023-05-06T06:36:11.934Z,13.38
2023-05-06T06:37:12.829Z,13.42
2023-05-06T06:38:11.883Z,13.43
2023-05-06T06:39:11.879Z,13.46
2023-05-06T06:40:11.872Z,13.51
2023-05-06T06:41:11.856Z,13.55
2023-05-06T06:42:11.883Z,13.57
2023-05-06T06:43:11.897Z,13.58
2023-05-06T06:44:11.825Z,13.63
2023-05-06T06:45:12.114Z,13.64
2023-05-06T06:46:11.859Z,13.68
2023-05-06T06:47:11.827Z,13.67
2023-05-06T06:48:13.040Z,13.71
2023-05-06T06:49:11.765Z,13.72
2023-05-06T06:50:11.757Z,13.75
2023-05-06T06:51:11.756Z,13.76
2023-05-06T06:52:11.740Z,13.79
2023-05-06T06:53:11.737Z,13.80
2023-05-06T06:54:12.112Z,13.83
2023-05-06T06:55:11.978Z,13.88
2023-05-06T06:56:11.700Z,13.91
2023-05-06T06:57:11.723Z,13.94
2023-05-06T06:58:11.680Z,13.96
2023-05-06T06:59:11.659Z,14.00
2023-05-06T07:00:11.668Z,14.04
2023-05-06T07:01:11.683Z,14.04
2023-05-06T07:02:11.627Z,14.08
2023-05-06T07:03:11.672Z,14.11
2023-05-06T07:04:11.646Z,14.13
2023-05-06T07:05:11.984Z,14.15
2023-05-06T07:06:11.590Z,14.16
2023-05-06T07:07:11.654Z,14.19
2023-05-06T07:08:16.855Z,14.22
2023-05-06T07:09:11.553Z,14.26
2023-05-06T07:10:11.534Z,14.27
2023-05-06T07:11:11.527Z,14.30
2023-05-06T07:12:11.549Z,14.33
2023-05-06T07:13:11.522Z,14.33
2023-05-06T07:14:11.507Z,14.34
2023-05-06T07:15:11.715Z,14.37
2023-05-06T07:16:11.476Z,14.40
2023-05-06T07:17:11.582Z,14.40
2023-05-06T07:18:11.540Z,14.44
2023-05-06T07:19:11.450Z,14.45
2023-05-06T07:20:11.438Z,14.49
2023-05-06T07:21:11.438Z,14.51
2023-05-06T07:22:11.443Z,14.55
2023-05-06T07:23:11.388Z,14.56
2023-05-06T07:24:11.404Z,14.59
2023-05-06T07:25:11.640Z,14.63
2023-05-06T07:26:11.429Z,14.66
2023-05-06T07:27:11.361Z,14.66
2023-05-06T07:28:11.406Z,14.69
2023-05-06T07:29:11.357Z,14.71
2023-05-06T07:30:11.336Z,14.74
2023-05-06T07:31:11.353Z,14.77
2023-05-06T07:32:11.312Z,14.82
2023-05-06T07:33:11.783Z,14.87
2023-05-06T07:34:11.289Z,14.90
2023-05-06T07:35:11.529Z,14.96
2023-05-06T07:36:11.253Z,14.97
2023-05-06T07:37:11.249Z,15.01
2023-05-06T07:38:11.241Z,14.99
2023-05-06T07:39:11.268Z,15.01
2023-05-06T07:40:11.251Z,15.05
2023-05-06T07:41:11.265Z,15.05
2023-05-06T07:42:11.228Z,15.08
2023-05-06T07:43:11.173Z,15.11
2023-05-06T07:44:11.178Z,15.10
2023-05-06T07:45:11.635Z,15.08
2023-05-06T07:46:11.190Z,15.07
2023-05-06T07:47:11.237Z,15.10
2023-05-06T07:48:11.250Z,15.14
2023-05-06T07:49:11.117Z,15.20
2023-05-06T07:50:11.109Z,15.23
2023-05-06T07:51:11.100Z,15.23
2023-05-06T07:52:11.097Z,15.22
2023-05-06T07:53:11.088Z,15.20
2023-05-06T07:54:11.114Z,15.23
2023-05-06T07:55:11.271Z,15.26
2023-05-06T07:56:11.054Z,15.29
2023-05-06T07:57:11.049Z,15.29
2023-05-06T07:58:11.019Z,15.33
2023-05-06T07:59:11.008Z,15.32
2023-05-06T08:00:12.616Z,15.35
2023-05-06T08:01:12.212Z,15.38
2023-05-06T08:02:11.059Z,15.41
2023-05-06T08:03:11.009Z,15.44
2023-05-06T08:04:11.046Z,15.48
2023-05-06T08:05:11.150Z,15.51
2023-05-06T08:06:10.948Z,15.56
2023-05-06T08:07:10.929Z,15.59
2023-05-06T08:08:11.002Z,15.59
2023-05-06T08:09:13.082Z,15.58
2023-05-06T08:10:11.965Z,15.59
2023-05-06T08:11:10.871Z,15.59
2023-05-06T08:12:10.883Z,15.62
2023-05-06T08:13:10.917Z,15.68
2023-05-06T08:14:10.887Z,15.68
2023-05-06T08:15:11.037Z,15.70
2023-05-06T08:16:10.906Z,15.72
2023-05-06T08:17:10.815Z,15.73
2023-05-06T08:18:21.525Z,15.70
2023-05-06T08:19:11.808Z,15.68
2023-05-06T08:20:10.795Z,15.66
2023-05-06T08:21:10.768Z,15.68
2023-05-06T08:22:10.763Z,15.70
2023-05-06T08:23:10.742Z,15.73
2023-05-06T08:24:10.762Z,15.73
2023-05-06T08:25:10.868Z,15.76
2023-05-06T08:26:10.734Z,15.78
2023-05-06T08:27:10.733Z,15.84
2023-05-06T08:28:10.697Z,15.88
2023-05-06T08:29:10.682Z,15.91
2023-05-06T08:30:10.715Z,15.95
2023-05-06T08:31:11.054Z,15.96
2023-05-06T08:32:11.000Z,15.98
2023-05-06T08:33:10.668Z,15.99
2023-05-06T08:34:10.642Z,16.00
2023-05-06T08:35:10.851Z,16.02
2023-05-06T08:36:10.608Z,16.02
2023-05-06T08:37:10.597Z,16.02
2023-05-06T08:38:10.634Z,16.05
2023-05-06T08:39:10.576Z,16.06
2023-05-06T08:40:10.561Z,16.06
2023-05-06T08:41:10.538Z,16.09
2023-05-06T08:42:10.969Z,16.10
2023-05-06T08:43:10.532Z,16.13
2023-05-06T08:44:10.617Z,16.16
2023-05-06T08:45:10.660Z,16.21
2023-05-06T08:46:10.536Z,16.21
2023-05-06T08:47:12.964Z,16.25
2023-05-06T08:48:10.493Z,16.28
2023-05-06T08:49:10.458Z,16.29
2023-05-06T08:50:10.462Z,16.33
2023-05-06T08:51:10.446Z,16.39
2023-05-06T08:52:10.481Z,16.43
2023-05-06T08:53:10.823Z,16.47
2023-05-06T08:54:10.464Z,16.51
2023-05-06T08:55:10.639Z,16.51
2023-05-06T08:56:10.396Z,16.55
2023-05-06T08:57:12.459Z,16.58
2023-05-06T08:58:10.397Z,16.62
2023-05-06T08:59:10.424Z,16.65
2023-05-06T09:00:10.355Z,16.64
2023-05-06T09:01:10.378Z,16.69
2023-05-06T09:02:10.424Z,16.74
2023-05-06T09:03:10.355Z,16.73
2023-05-06T09:04:10.304Z,16.77
2023-05-06T09:05:12.632Z,16.82
2023-05-06T09:06:10.320Z,16.90
2023-05-06T09:07:10.309Z,16.95
2023-05-06T09:08:10.262Z,17.02
2023-05-06T09:09:10.245Z,17.07
2023-05-06T09:10:10.465Z,17.09
2023-05-06T09:11:10.228Z,17.14
2023-05-06T09:12:10.210Z,17.20
2023-05-06T09:13:10.296Z,17.27
2023-05-06T09:14:10.196Z,17.31
2023-05-06T09:15:10.314Z,17.34
2023-05-06T09:16:10.225Z,17.39
2023-05-06T09:17:10.176Z,17.45
2023-05-06T09:18:10.178Z,17.46
2023-05-06T09:19:10.196Z,17.43
2023-05-06T09:20:10.138Z,17.47
2023-05-06T09:21:10.113Z,17.49
2023-05-06T09:22:10.115Z,17.52
2023-05-06T09:23:10.141Z,17.52
2023-05-06T09:24:10.094Z,17.56
2023-05-06T09:25:10.232Z,17.54
2023-05-06T09:26:10.064Z,17.56
2023-05-06T09:27:13.263Z,17.62
2023-05-06T09:28:10.063Z,17.63
2023-05-06T09:29:10.036Z,17.62
2023-05-06T09:30:10.030Z,17.63
2023-05-06T09:31:10.027Z,17.63
2023-05-06T09:32:10.095Z,17.62
2023-05-06T09:33:10.176Z,17.54
2023-05-06T09:34:09.980Z,17.52
2023-05-06T09:35:10.502Z,17.52
2023-05-06T09:36:09.961Z,17.52
2023-05-06T09:37:09.956Z,17.50
2023-05-06T09:38:09.982Z,17.53
2023-05-06T09:39:10.127Z,17.54
2023-05-06T09:40:09.961Z,17.57
2023-05-06T09:41:09.901Z,17.59
2023-05-06T09:42:09.895Z,17.63
2023-05-06T09:43:09.892Z,17.71
2023-05-06T09:44:09.950Z,17.71
2023-05-06T09:45:10.189Z,17.72
2023-05-06T09:46:09.873Z,17.78
2023-05-06T09:47:09.835Z,17.81
2023-05-06T09:48:10.116Z,17.83
2023-05-06T09:49:09.809Z,17.79
2023-05-06T09:50:09.831Z,17.79
2023-05-06T09:51:09.832Z,17.78
2023-05-06T09:52:09.793Z,17.78
2023-05-06T09:53:09.811Z,17.81
2023-05-06T09:54:09.776Z,17.83
2023-05-06T09:55:10.105Z,17.84
2023-05-06T09:56:09.765Z,17.90
2023-05-06T09:57:09.729Z,17.97
2023-05-06T09:58:09.759Z,18.02
2023-05-06T09:59:09.712Z,18.08
2023-05-06T10:00:09.711Z,18.12
2023-05-06T10:01:09.796Z,18.15
2023-05-06T10:02:09.733Z,18.20
2023-05-06T10:03:09.838Z,18.21
2023-05-06T10:04:10.223Z,18.26
2023-05-06T10:05:09.885Z,18.28
2023-05-06T10:06:09.663Z,18.30
2023-05-06T10:07:09.625Z,18.34
2023-05-06T10:08:09.632Z,18.33
2023-05-06T10:09:09.729Z,18.30
2023-05-06T10:10:09.606Z,18.28
2023-05-06T10:11:09.577Z,18.28
2023-05-06T10:12:09.579Z,18.30
2023-05-06T10:13:09.620Z,18.30
2023-05-06T10:14:09.577Z,18.28
2023-05-06T10:15:09.763Z,18.28
2023-05-06T10:16:09.611Z,18.31
2023-05-06T10:17:09.520Z,18.36
2023-05-06T10:18:09.551Z,18.42
2023-05-06T10:19:09.550Z,18.46
2023-05-06T10:20:09.491Z,18.51
2023-05-06T10:21:09.476Z,18.57
2023-05-06T10:22:09.470Z,18.61
2023-05-06T10:23:09.452Z,18.67
2023-05-06T10:24:09.449Z,18.74
2023-05-06T10:25:09.679Z,18.82
2023-05-06T10:26:09.443Z,18.86
2023-05-06T10:27:09.447Z,18.94
2023-05-06T10:28:11.398Z,19.04
2023-05-06T10:29:10.614Z,19.08
2023-05-06T10:30:09.373Z,19.12
2023-05-06T10:31:09.363Z,19.16
2023-05-06T10:32:09.362Z,19.19
2023-05-06T10:33:09.372Z,19.17
2023-05-06T10:34:09.335Z,19.17
2023-05-06T10:35:09.759Z,19.17
2023-05-06T10:36:09.316Z,19.15
2023-05-06T10:37:09.292Z,19.13
2023-05-06T10:38:09.316Z,19.12
2023-05-06T10:39:09.268Z,19.13
2023-05-06T10:40:09.303Z,19.12
2023-05-06T10:41:09.256Z,19.15
2023-05-06T10:42:09.245Z,19.17
2023-05-06T10:43:09.232Z,19.20
2023-05-06T10:44:09.221Z,19.20
2023-05-06T10:45:09.335Z,19.22
2023-05-06T10:46:09.428Z,19.20
2023-05-06T10:47:09.189Z,19.23
2023-05-06T10:48:09.183Z,19.24
2023-05-06T10:49:09.185Z,19.30
2023-05-06T10:50:09.193Z,19.35
2023-05-06T10:51:09.143Z,19.39
2023-05-06T10:52:09.124Z,19.42
2023-05-06T10:53:09.109Z,19.45
2023-05-06T10:54:09.099Z,19.45
2023-05-06T10:55:09.477Z,19.49
2023-05-06T10:56:09.128Z,19.52
2023-05-06T10:57:09.110Z,19.52
2023-05-06T10:58:09.060Z,19.54
2023-05-06T10:59:09.056Z,19.56
2023-05-06T11:00:09.037Z,19.57
2023-05-06T11:01:09.068Z,19.59
2023-05-06T11:02:09.054Z,19.57
2023-05-06T11:03:09.123Z,19.57
2023-05-06T11:04:08.998Z,19.60
2023-05-06T11:05:09.811Z,19.60
2023-05-06T11:06:08.974Z,19.64
2023-05-06T11:07:08.974Z,19.64
2023-05-06T11:08:08.983Z,19.68
2023-05-06T11:09:08.957Z,19.70
2023-05-06T11:10:09.331Z,19.71
2023-05-06T11:11:08.923Z,19.74
2023-05-06T11:12:08.903Z,19.74
2023-05-06T11:13:08.926Z,19.74
2023-05-06T11:14:08.882Z,19.71
2023-05-06T11:15:09.122Z,19.72
2023-05-06T11:16:08.858Z,19.71
2023-05-06T11:17:09.033Z,19.71
2023-05-06T11:18:08.900Z,19.72
2023-05-06T11:19:08.838Z,19.74
2023-05-06T11:20:08.983Z,19.75
2023-05-06T11:21:09.106Z,19.75
2023-05-06T11:22:08.800Z,19.78
2023-05-06T11:23:08.789Z,19.79
2023-05-06T11:24:08.793Z,19.79
2023-05-06T11:25:08.771Z,19.81
2023-05-06T11:26:08.808Z,19.84
2023-05-06T11:27:08.748Z,19.87
2023-05-06T11:28:08.727Z,19.90
2023-05-06T11:29:08.736Z,19.92
2023-05-06T11:30:08.864Z,19.96
2023-05-06T11:31:09.055Z,19.97
2023-05-06T11:32:08.699Z,19.96
2023-05-06T11:33:08.723Z,19.97
2023-05-06T11:34:08.665Z,19.96
2023-05-06T11:35:08.662Z,19.94
2023-05-06T11:36:08.678Z,19.97
2023-05-06T11:37:09.755Z,19.99
2023-05-06T11:38:08.674Z,20.02
2023-05-06T11:39:08.624Z,20.05
2023-05-06T11:40:08.795Z,20.09
2023-05-06T11:41:08.603Z,20.11
2023-05-06T11:42:09.104Z,20.12
2023-05-06T11:43:10.513Z,20.14
2023-05-06T11:44:10.901Z,20.15
2023-05-06T11:45:08.552Z,20.12
2023-05-06T11:46:08.603Z,20.07
2023-05-06T11:47:08.546Z,20.04
2023-05-06T11:48:08.518Z,20.04
2023-05-06T11:49:08.515Z,20.02
2023-05-06T11:50:08.744Z,20.00
2023-05-06T11:51:08.505Z,20.00
2023-05-06T11:52:08.484Z,19.99
2023-05-06T11:53:08.468Z,19.99
2023-05-06T11:54:08.461Z,20.02
2023-05-06T11:55:08.446Z,20.00
2023-05-06T11:56:08.477Z,20.04
2023-05-06T11:57:08.470Z,20.04
2023-05-06T11:58:08.414Z,20.05
2023-05-06T11:59:08.421Z,20.08
2023-05-06T12:00:08.653Z,20.08
2023-05-06T12:01:08.388Z,20.08
2023-05-06T12:02:08.431Z,20.09
2023-05-06T12:03:08.406Z,20.11
2023-05-06T12:04:08.613Z,20.09
2023-05-06T12:05:08.408Z,20.09
2023-05-06T12:06:08.320Z,20.08
2023-05-06T12:07:08.325Z,20.05
2023-05-06T12:08:16.288Z,20.07
2023-05-06T12:09:09.303Z,20.07
2023-05-06T12:10:08.404Z,20.07
2023-05-06T12:11:08.277Z,20.08
2023-05-06T12:12:08.272Z,20.08
2023-05-06T12:13:08.324Z,20.08
2023-05-06T12:14:08.272Z,20.12
2023-05-06T12:15:08.248Z,20.14
2023-05-06T12:16:08.308Z,20.15
2023-05-06T12:17:08.210Z,20.18
2023-05-06T12:18:08.319Z,20.18
2023-05-06T12:19:08.220Z,20.17
2023-05-06T12:20:08.349Z,20.15
2023-05-06T12:21:08.170Z,20.17
2023-05-06T12:22:08.144Z,20.18
2023-05-06T12:23:08.146Z,20.22
2023-05-06T12:24:08.199Z,20.25
2023-05-06T12:25:08.219Z,20.29
2023-05-06T12:26:08.144Z,20.30
2023-05-06T12:27:08.101Z,20.34
2023-05-06T12:28:08.085Z,20.39
2023-05-06T12:29:08.070Z,20.46
2023-05-06T12:30:08.150Z,20.53
2023-05-06T12:31:08.124Z,20.61
2023-05-06T12:32:09.102Z,20.65
2023-05-06T12:33:08.211Z,20.70
2023-05-06T12:34:08.046Z,20.74
2023-05-06T12:35:08.009Z,20.80
2023-05-06T12:36:08.572Z,20.83
2023-05-06T12:37:07.992Z,20.88
2023-05-06T12:38:07.974Z,20.90
2023-05-06T12:39:08.007Z,20.95
2023-05-06T12:40:08.031Z,20.98
2023-05-06T12:41:07.949Z,21.04
2023-05-06T12:42:08.016Z,21.10
2023-05-06T12:43:07.975Z,21.13
2023-05-06T12:44:07.966Z,21.19
2023-05-06T12:45:07.898Z,21.23
2023-05-06T12:46:08.078Z,21.26
2023-05-06T12:47:07.906Z,21.29
2023-05-06T12:48:07.928Z,21.26
2023-05-06T12:49:07.854Z,21.19
2023-05-06T12:50:07.853Z,21.14
2023-05-06T12:51:07.853Z,21.19
2023-05-06T12:52:07.856Z,21.25